sensor_id;sensor_type;location;lat;lon;timestamp;temperature;humidity
14016;DHT22;7083;48.854;9.158;2023-05-16T00:00:35;10.50;99.90
14016;DHT22;7083;48.854;9.158;2023-05-16T00:03:03;10.60;99.90
14016;DHT22;7083;48.854;9.158;2023-05-16T00:05:30;10.50;99.90
14016;DHT22;7083;48.854;9.158;2023-05-16T00:07:56;10.60;99.90
14016;DHT22;7083;48.854;9.158;2023-05-16T00:10:23;10.60;99.90
14016;DHT22;7083;48.854;9.158;2023-05-16T00:12:50;10.60;99.90
14016;DHT22;7083;48.854;9.158;2023-05-16T00:15:17;10.60;99.90
14016;DHT22;7083;48.854;9.158;2023-05-16T00:17:46;10.60;99.90
14016;DHT22;7083;48.854;9.158;2023-05-16T00:20:14;10.60;99.90
14016;DHT22;7083;48.854;9.158;2023-05-16T00:22:41;10.50;99.90
14016;DHT22;7083;48.854;9.158;2023-05-16T00:25:08;10.50;99.90
14016;DHT22;7083;48.854;9.158;2023-05-16T00:27:35;10.40;99.90
14016;DHT22;7083;48.854;9.158;2023-05-16T00:30:03;10.40;99.90
14016;DHT22;7083;48.854;9.158;2023-05-16T00:32:30;10.30;99.90
14016;DHT22;7083;48.854;9.158;2023-05-16T00:34:58;10.30;99.90
14016;DHT22;7083;48.854;9.158;2023-05-16T00:37:25;10.20;99.90
14016;DHT22;7083;48.854;9.158;2023-05-16T00:39:51;10.10;99.90
14016;DHT22;7083;48.854;9.158;2023-05-16T00:42:18;10.10;99.90
14016;DHT22;7083;48.854;9.158;2023-05-16T00:44:45;10.10;99.90
14016;DHT22;7083;48.854;9.158;2023-05-16T00:47:12;10.10;99.90
14016;DHT22;7083;48.854;9.158;2023-05-16T00:49:39;10.10;99.90
14016;DHT22;7083;48.854;9.158;2023-05-16T00:52:07;10.10;99.90
14016;DHT22;7083;48.854;9.158;2023-05-16T00:54:34;10.10;99.90
14016;DHT22;7083;48.854;9.158;2023-05-16T00:57:01;10.10;99.90
14016;DHT22;7083;48.854;9.158;2023-05-16T00:59:28;10.10;99.90
14016;DHT22;7083;48.854;9.158;2023-05-16T01:01:55;10.10;99.90
14016;DHT22;7083;48.854;9.158;2023-05-16T01:04:22;10.20;99.90
14016;DHT22;7083;48.854;9.158;2023-05-16T01:06:48;10.20;99.90
14016;DHT22;7083;48.854;9.158;2023-05-16T01:09:16;10.20;99.90
14016;DHT22;7083;48.854;9.158;2023-05-16T01:11:50;10.30;99.90
14016;DHT22;7083;48.854;9.158;2023-05-16T01:14:21;10.30;99.90
14016;DHT22;7083;48.854;9.158;2023-05-16T01:16:53;10.30;99.90
14016;DHT22;7083;48.854;9.158;2023-05-16T01:19:38;10.30;99.90
14016;DHT22;7083;48.854;9.158;2023-05-16T01:22:11;10.30;99.90
14016;DHT22;7083;48.854;9.158;2023-05-16T01:24:59;10.30;99.90
14016;DHT22;7083;48.854;9.158;2023-05-16T01:27:29;10.30;99.90
14016;DHT22;7083;48.854;9.158;2023-05-16T01:29:57;10.30;99.90
14016;DHT22;7083;48.854;9.158;2023-05-16T01:32:24;10.20;99.90
14016;DHT22;7083;48.854;9.158;2023-05-16T01:34:50;10.20;99.90
14016;DHT22;7083;48.854;9.158;2023-05-16T01:37:23;10.10;99.90
14016;DHT22;7083;48.854;9.158;2023-05-16T01:39:55;10.10;99.90
14016;DHT22;7083;48.854;9.158;2023-05-16T01:42:26;10.10;99.90
14016;DHT22;7083;48.854;9.158;2023-05-16T01:44:59;10.10;99.90
14016;DHT22;7083;48.854;9.158;2023-05-16T01:47:30;10.00;99.90
14016;DHT22;7083;48.854;9.158;2023-05-16T01:50:04;10.00;99.90
14016;DHT22;7083;48.854;9.158;2023-05-16T01:52:36;10.00;99.90
14016;DHT22;7083;48.854;9.158;2023-05-16T01:55:06;10.10;99.90
14016;DHT22;7083;48.854;9.158;2023-05-16T01:57:36;10.20;99.90
14016;DHT22;7083;48.854;9.158;2023-05-16T02:00:07;10.30;99.90
14016;DHT22;7083;48.854;9.158;2023-05-16T02:02:34;10.30;99.90
14016;DHT22;7083;48.854;9.158;2023-05-16T02:05:00;10.30;99.90
14016;DHT22;7083;48.854;9.158;2023-05-16T02:07:27;10.40;99.90
14016;DHT22;7083;48.854;9.158;2023-05-16T02:09:54;10.40;99.90
14016;DHT22;7083;48.854;9.158;2023-05-16T02:12:20;10.40;99.90
14016;DHT22;7083;48.854;9.158;2023-05-16T02:14:47;10.40;99.90
14016;DHT22;7083;48.854;9.158;2023-05-16T02:17:15;10.40;99.90
14016;DHT22;7083;48.854;9.158;2023-05-16T02:19:41;10.40;99.90
14016;DHT22;7083;48.854;9.158;2023-05-16T02:22:08;10.40;99.90
14016;DHT22;7083;48.854;9.158;2023-05-16T02:24:35;10.30;99.90
14016;DHT22;7083;48.854;9.158;2023-05-16T02:27:01;10.30;99.90
14016;DHT22;7083;48.854;9.158;2023-05-16T02:29:28;10.30;99.90
14016;DHT22;7083;48.854;9.158;2023-05-16T02:31:55;10.30;99.90
14016;DHT22;7083;48.854;9.158;2023-05-16T02:34:23;10.40;99.90
14016;DHT22;7083;48.854;9.158;2023-05-16T02:36:50;10.40;99.90
14016;DHT22;7083;48.854;9.158;2023-05-16T02:39:16;10.40;99.90
14016;DHT22;7083;48.854;9.158;2023-05-16T02:41:43;10.40;99.90
14016;DHT22;7083;48.854;9.158;2023-05-16T02:44:10;10.40;99.90
14016;DHT22;7083;48.854;9.158;2023-05-16T02:46:36;10.40;99.90
14016;DHT22;7083;48.854;9.158;2023-05-16T02:49:03;10.40;99.90
14016;DHT22;7083;48.854;9.158;2023-05-16T02:51:31;10.40;99.90
14016;DHT22;7083;48.854;9.158;2023-05-16T02:53:58;10.40;99.90
14016;DHT22;7083;48.854;9.158;2023-05-16T02:56:25;10.50;99.90
14016;DHT22;7083;48.854;9.158;2023-05-16T02:58:53;10.50;99.90
14016;DHT22;7083;48.854;9.158;2023-05-16T03:01:20;10.50;99.90
14016;DHT22;7083;48.854;9.158;2023-05-16T03:03:47;10.50;99.90
14016;DHT22;7083;48.854;9.158;2023-05-16T03:06:13;10.50;99.90
14016;DHT22;7083;48.854;9.158;2023-05-16T03:08:41;10.50;99.90
14016;DHT22;7083;48.854;9.158;2023-05-16T03:11:08;10.50;99.90
14016;DHT22;7083;48.854;9.158;2023-05-16T03:13:35;10.50;99.90
14016;DHT22;7083;48.854;9.158;2023-05-16T03:16:02;10.50;99.90
14016;DHT22;7083;48.854;9.158;2023-05-16T03:18:29;10.60;99.90
14016;DHT22;7083;48.854;9.158;2023-05-16T03:20:55;10.60;99.90
14016;DHT22;7083;48.854;9.158;2023-05-16T03:23:22;10.60;99.90
14016;DHT22;7083;48.854;9.158;2023-05-16T03:25:50;10.60;99.90
14016;DHT22;7083;48.854;9.158;2023-05-16T03:28:17;10.60;99.90
14016;DHT22;7083;48.854;9.158;2023-05-16T03:30:43;10.70;99.90
14016;DHT22;7083;48.854;9.158;2023-05-16T03:33:10;10.70;99.90
14016;DHT22;7083;48.854;9.158;2023-05-16T03:35:37;10.70;99.90
14016;DHT22;7083;48.854;9.158;2023-05-16T03:38:05;10.70;99.90
14016;DHT22;7083;48.854;9.158;2023-05-16T03:40:31;10.80;99.90
14016;DHT22;7083;48.854;9.158;2023-05-16T03:42:59;10.80;99.90
14016;DHT22;7083;48.854;9.158;2023-05-16T03:45:26;10.80;99.90
14016;DHT22;7083;48.854;9.158;2023-05-16T03:47:53;10.80;99.90
14016;DHT22;7083;48.854;9.158;2023-05-16T03:50:19;10.80;99.90
14016;DHT22;7083;48.854;9.158;2023-05-16T03:52:46;10.90;99.90
14016;DHT22;7083;48.854;9.158;2023-05-16T03:55:13;10.80;99.90
14016;DHT22;7083;48.854;9.158;2023-05-16T03:57:41;10.90;99.90
14016;DHT22;7083;48.854;9.158;2023-05-16T04:00:10;10.90;99.90
14016;DHT22;7083;48.854;9.158;2023-05-16T04:02:37;10.90;99.90
14016;DHT22;7083;48.854;9.158;2023-05-16T04:05:06;10.90;99.90
14016;DHT22;7083;48.854;9.158;2023-05-16T04:07:34;10.90;99.90
14016;DHT22;7083;48.854;9.158;2023-05-16T04:10:01;10.90;99.90
14016;DHT22;7083;48.854;9.158;2023-05-16T04:12:28;10.90;99.90
14016;DHT22;7083;48.854;9.158;2023-05-16T04:14:55;10.90;99.90
14016;DHT22;7083;48.854;9.158;2023-05-16T04:17:23;10.90;99.90
14016;DHT22;7083;48.854;9.158;2023-05-16T04:19:49;10.90;99.90
14016;DHT22;7083;48.854;9.158;2023-05-16T04:22:16;11.00;99.90
14016;DHT22;7083;48.854;9.158;2023-05-16T04:24:43;11.00;99.90
14016;DHT22;7083;48.854;9.158;2023-05-16T04:27:09;11.00;99.90
14016;DHT22;7083;48.854;9.158;2023-05-16T04:29:36;11.00;99.90
14016;DHT22;7083;48.854;9.158;2023-05-16T04:32:03;11.00;99.90
14016;DHT22;7083;48.854;9.158;2023-05-16T04:34:33;11.00;99.90
14016;DHT22;7083;48.854;9.158;2023-05-16T04:37:02;11.00;99.90
14016;DHT22;7083;48.854;9.158;2023-05-16T04:39:29;11.10;99.90
14016;DHT22;7083;48.854;9.158;2023-05-16T04:41:56;11.10;99.90
14016;DHT22;7083;48.854;9.158;2023-05-16T04:44:23;11.10;99.90
14016;DHT22;7083;48.854;9.158;2023-05-16T04:46:50;11.10;99.90
14016;DHT22;7083;48.854;9.158;2023-05-16T04:49:17;11.10;99.90
14016;DHT22;7083;48.854;9.158;2023-05-16T04:51:45;11.10;99.90
14016;DHT22;7083;48.854;9.158;2023-05-16T04:54:12;11.20;99.90
14016;DHT22;7083;48.854;9.158;2023-05-16T04:56:39;11.30;99.90
14016;DHT22;7083;48.854;9.158;2023-05-16T04:59:06;11.30;99.90
14016;DHT22;7083;48.854;9.158;2023-05-16T05:01:32;11.30;99.90
14016;DHT22;7083;48.854;9.158;2023-05-16T05:04:00;11.40;99.90
14016;DHT22;7083;48.854;9.158;2023-05-16T05:06:26;11.40;99.90
14016;DHT22;7083;48.854;9.158;2023-05-16T05:08:54;11.50;99.90
14016;DHT22;7083;48.854;9.158;2023-05-16T05:11:21;11.50;99.90
14016;DHT22;7083;48.854;9.158;2023-05-16T05:13:47;11.50;99.90
14016;DHT22;7083;48.854;9.158;2023-05-16T05:16:14;11.60;99.90
14016;DHT22;7083;48.854;9.158;2023-05-16T05:18:41;11.50;99.90
14016;DHT22;7083;48.854;9.158;2023-05-16T05:21:08;11.60;99.90
14016;DHT22;7083;48.854;9.158;2023-05-16T05:23:35;11.60;99.90
14016;DHT22;7083;48.854;9.158;2023-05-16T05:26:03;11.60;99.90
14016;DHT22;7083;48.854;9.158;2023-05-16T05:28:30;11.60;99.90
14016;DHT22;7083;48.854;9.158;2023-05-16T05:30:57;11.60;99.90
14016;DHT22;7083;48.854;9.158;2023-05-16T05:33:26;11.70;99.90
14016;DHT22;7083;48.854;9.158;2023-05-16T05:35:53;11.70;99.90
14016;DHT22;7083;48.854;9.158;2023-05-16T05:38:20;11.70;99.90
14016;DHT22;7083;48.854;9.158;2023-05-16T05:40:47;11.70;99.90
14016;DHT22;7083;48.854;9.158;2023-05-16T05:43:15;11.70;99.90
14016;DHT22;7083;48.854;9.158;2023-05-16T05:45:42;11.70;99.90
14016;DHT22;7083;48.854;9.158;2023-05-16T05:48:09;11.80;99.90
14016;DHT22;7083;48.854;9.158;2023-05-16T05:50:36;11.90;99.90
14016;DHT22;7083;48.854;9.158;2023-05-16T05:53:03;11.90;99.90
14016;DHT22;7083;48.854;9.158;2023-05-16T05:55:30;12.00;99.90
14016;DHT22;7083;48.854;9.158;2023-05-16T05:57:56;12.10;99.90
14016;DHT22;7083;48.854;9.158;2023-05-16T06:00:24;12.20;99.90
14016;DHT22;7083;48.854;9.158;2023-05-16T06:02:52;12.20;99.90
14016;DHT22;7083;48.854;9.158;2023-05-16T06:05:19;12.30;99.90
14016;DHT22;7083;48.854;9.158;2023-05-16T06:07:45;12.40;99.90
14016;DHT22;7083;48.854;9.158;2023-05-16T06:10:12;12.40;99.90
14016;DHT22;7083;48.854;9.158;2023-05-16T06:12:39;12.50;99.90
14016;DHT22;7083;48.854;9.158;2023-05-16T06:15:06;12.60;99.90
14016;DHT22;7083;48.854;9.158;2023-05-16T06:17:34;12.70;99.90
14016;DHT22;7083;48.854;9.158;2023-05-16T06:20:01;12.70;99.90
14016;DHT22;7083;48.854;9.158;2023-05-16T06:22:28;12.80;99.90
14016;DHT22;7083;48.854;9.158;2023-05-16T06:24:55;12.90;99.90
14016;DHT22;7083;48.854;9.158;2023-05-16T06:27:21;13.00;99.90
14016;DHT22;7083;48.854;9.158;2023-05-16T06:29:48;13.00;99.90
14016;DHT22;7083;48.854;9.158;2023-05-16T06:32:14;13.00;99.90
14016;DHT22;7083;48.854;9.158;2023-05-16T06:34:42;13.10;99.90
14016;DHT22;7083;48.854;9.158;2023-05-16T06:37:09;13.10;99.90
14016;DHT22;7083;48.854;9.158;2023-05-16T06:39:36;13.10;99.90
14016;DHT22;7083;48.854;9.158;2023-05-16T06:42:03;13.10;99.90
14016;DHT22;7083;48.854;9.158;2023-05-16T06:44:29;13.00;99.90
14016;DHT22;7083;48.854;9.158;2023-05-16T06:46:56;13.00;99.90
14016;DHT22;7083;48.854;9.158;2023-05-16T06:49:23;13.00;99.90
14016;DHT22;7083;48.854;9.158;2023-05-16T06:51:51;13.00;99.90
14016;DHT22;7083;48.854;9.158;2023-05-16T06:54:17;13.00;99.90
14016;DHT22;7083;48.854;9.158;2023-05-16T06:56:44;12.90;99.90
14016;DHT22;7083;48.854;9.158;2023-05-16T06:59:11;12.90;99.90
14016;DHT22;7083;48.854;9.158;2023-05-16T07:01:37;12.90;99.90
14016;DHT22;7083;48.854;9.158;2023-05-16T07:04:04;12.90;99.90
14016;DHT22;7083;48.854;9.158;2023-05-16T07:06:31;13.00;99.90
14016;DHT22;7083;48.854;9.158;2023-05-16T07:08:59;13.00;99.90
14016;DHT22;7083;48.854;9.158;2023-05-16T07:11:26;13.00;99.90
14016;DHT22;7083;48.854;9.158;2023-05-16T07:13:53;13.00;99.90
14016;DHT22;7083;48.854;9.158;2023-05-16T07:16:19;12.90;99.90
14016;DHT22;7083;48.854;9.158;2023-05-16T07:18:46;12.80;99.90
14016;DHT22;7083;48.854;9.158;2023-05-16T07:21:13;12.70;99.90
14016;DHT22;7083;48.854;9.158;2023-05-16T07:23:39;12.60;99.90
14016;DHT22;7083;48.854;9.158;2023-05-16T07:26:07;12.50;99.90
14016;DHT22;7083;48.854;9.158;2023-05-16T07:28:34;12.50;99.90
14016;DHT22;7083;48.854;9.158;2023-05-16T07:31:01;12.50;99.90
14016;DHT22;7083;48.854;9.158;2023-05-16T07:33:28;12.60;99.90
14016;DHT22;7083;48.854;9.158;2023-05-16T07:35:54;12.70;99.90
14016;DHT22;7083;48.854;9.158;2023-05-16T07:38:21;12.80;99.90
14016;DHT22;7083;48.854;9.158;2023-05-16T07:40:48;12.90;99.90
14016;DHT22;7083;48.854;9.158;2023-05-16T07:43:16;13.00;99.90
14016;DHT22;7083;48.854;9.158;2023-05-16T07:45:42;13.20;99.90
14016;DHT22;7083;48.854;9.158;2023-05-16T07:48:09;13.30;99.90
14016;DHT22;7083;48.854;9.158;2023-05-16T07:50:36;13.50;99.90
14016;DHT22;7083;48.854;9.158;2023-05-16T07:53:02;13.70;99.90
14016;DHT22;7083;48.854;9.158;2023-05-16T07:55:29;14.00;99.90
14016;DHT22;7083;48.854;9.158;2023-05-16T07:57:56;14.10;99.90
14016;DHT22;7083;48.854;9.158;2023-05-16T08:00:24;14.10;99.90
14016;DHT22;7083;48.854;9.158;2023-05-16T08:02:51;14.10;99.90
14016;DHT22;7083;48.854;9.158;2023-05-16T08:05:17;14.10;99.90
14016;DHT22;7083;48.854;9.158;2023-05-16T08:07:44;14.10;99.90
14016;DHT22;7083;48.854;9.158;2023-05-16T08:10:11;14.10;99.90
14016;DHT22;7083;48.854;9.158;2023-05-16T08:12:37;14.00;99.90
14016;DHT22;7083;48.854;9.158;2023-05-16T08:15:05;14.00;99.90
14016;DHT22;7083;48.854;9.158;2023-05-16T08:17:33;14.00;99.90
14016;DHT22;7083;48.854;9.158;2023-05-16T08:20:00;14.00;99.90
14016;DHT22;7083;48.854;9.158;2023-05-16T08:22:27;13.90;99.90
14016;DHT22;7083;48.854;9.158;2023-05-16T08:24:53;13.90;99.90
14016;DHT22;7083;48.854;9.158;2023-05-16T08:27:22;13.80;99.90
14016;DHT22;7083;48.854;9.158;2023-05-16T08:29:48;13.70;99.90
14016;DHT22;7083;48.854;9.158;2023-05-16T08:32:15;13.60;99.90
14016;DHT22;7083;48.854;9.158;2023-05-16T08:34:43;13.60;99.90
14016;DHT22;7083;48.854;9.158;2023-05-16T08:37:10;13.60;99.90
14016;DHT22;7083;48.854;9.158;2023-05-16T08:39:37;13.60;99.90
14016;DHT22;7083;48.854;9.158;2023-05-16T08:42:05;13.60;99.90
14016;DHT22;7083;48.854;9.158;2023-05-16T08:44:33;13.50;99.90
14016;DHT22;7083;48.854;9.158;2023-05-16T08:47:06;13.50;99.90
14016;DHT22;7083;48.854;9.158;2023-05-16T08:49:34;13.50;99.90
14016;DHT22;7083;48.854;9.158;2023-05-16T08:52:06;13.60;99.90
14016;DHT22;7083;48.854;9.158;2023-05-16T08:54:35;13.70;99.90
14016;DHT22;7083;48.854;9.158;2023-05-16T08:57:02;13.80;99.90
14016;DHT22;7083;48.854;9.158;2023-05-16T08:59:30;13.90;99.90
14016;DHT22;7083;48.854;9.158;2023-05-16T09:01:58;14.10;99.90
14016;DHT22;7083;48.854;9.158;2023-05-16T09:04:25;14.20;99.90
14016;DHT22;7083;48.854;9.158;2023-05-16T09:06:52;14.40;99.90
14016;DHT22;7083;48.854;9.158;2023-05-16T09:09:20;14.60;99.90
14016;DHT22;7083;48.854;9.158;2023-05-16T09:11:46;14.60;99.90
14016;DHT22;7083;48.854;9.158;2023-05-16T09:14:13;14.70;99.90
14016;DHT22;7083;48.854;9.158;2023-05-16T09:16:40;14.80;99.90
14016;DHT22;7083;48.854;9.158;2023-05-16T09:19:06;15.00;99.90
14016;DHT22;7083;48.854;9.158;2023-05-16T09:21:39;15.10;99.90
14016;DHT22;7083;48.854;9.158;2023-05-16T09:24:07;15.10;99.90
14016;DHT22;7083;48.854;9.158;2023-05-16T09:26:37;15.10;99.90
14016;DHT22;7083;48.854;9.158;2023-05-16T09:29:09;15.10;99.90
14016;DHT22;7083;48.854;9.158;2023-05-16T09:31:37;15.00;99.90
14016;DHT22;7083;48.854;9.158;2023-05-16T09:34:06;14.90;99.90
14016;DHT22;7083;48.854;9.158;2023-05-16T09:36:33;14.80;99.90
14016;DHT22;7083;48.854;9.158;2023-05-16T09:39:01;14.70;99.90
14016;DHT22;7083;48.854;9.158;2023-05-16T09:41:28;14.70;99.90
14016;DHT22;7083;48.854;9.158;2023-05-16T09:44:02;14.30;99.90
14016;DHT22;7083;48.854;9.158;2023-05-16T09:46:30;14.80;99.90
14016;DHT22;7083;48.854;9.158;2023-05-16T09:48:56;15.00;99.90
14016;DHT22;7083;48.854;9.158;2023-05-16T09:51:23;15.30;99.90
14016;DHT22;7083;48.854;9.158;2023-05-16T09:53:50;15.50;99.90
14016;DHT22;7083;48.854;9.158;2023-05-16T09:56:17;15.60;99.90
14016;DHT22;7083;48.854;9.158;2023-05-16T09:58:44;15.70;99.90
14016;DHT22;7083;48.854;9.158;2023-05-16T10:01:13;15.90;99.90
14016;DHT22;7083;48.854;9.158;2023-05-16T10:03:40;16.00;99.90
14016;DHT22;7083;48.854;9.158;2023-05-16T10:06:07;16.00;99.90
14016;DHT22;7083;48.854;9.158;2023-05-16T10:08:35;16.00;99.90
14016;DHT22;7083;48.854;9.158;2023-05-16T10:11:03;16.10;99.90
14016;DHT22;7083;48.854;9.158;2023-05-16T10:13:32;16.10;99.90
14016;DHT22;7083;48.854;9.158;2023-05-16T10:16:01;16.30;99.90
14016;DHT22;7083;48.854;9.158;2023-05-16T10:18:34;16.50;99.90
14016;DHT22;7083;48.854;9.158;2023-05-16T10:21:04;16.80;99.90
14016;DHT22;7083;48.854;9.158;2023-05-16T10:23:32;16.90;99.90
14016;DHT22;7083;48.854;9.158;2023-05-16T10:26:02;16.70;99.90
14016;DHT22;7083;48.854;9.158;2023-05-16T10:28:30;16.50;99.90
14016;DHT22;7083;48.854;9.158;2023-05-16T10:30:58;16.20;99.90
14016;DHT22;7083;48.854;9.158;2023-05-16T10:33:27;16.00;99.90
14016;DHT22;7083;48.854;9.158;2023-05-16T10:35:56;15.70;99.90
14016;DHT22;7083;48.854;9.158;2023-05-16T10:38:23;15.50;99.90
14016;DHT22;7083;48.854;9.158;2023-05-16T10:40:50;15.30;99.90
14016;DHT22;7083;48.854;9.158;2023-05-16T10:43:24;15.00;99.90
14016;DHT22;7083;48.854;9.158;2023-05-16T10:45:55;14.80;99.90
14016;DHT22;7083;48.854;9.158;2023-05-16T10:48:29;14.60;99.90
14016;DHT22;7083;48.854;9.158;2023-05-16T10:50:57;14.30;99.90
14016;DHT22;7083;48.854;9.158;2023-05-16T10:53:30;14.20;99.90
14016;DHT22;7083;48.854;9.158;2023-05-16T10:56:09;14.10;99.90
14016;DHT22;7083;48.854;9.158;2023-05-16T10:58:42;14.00;99.90
14016;DHT22;7083;48.854;9.158;2023-05-16T11:01:18;13.90;99.90
14016;DHT22;7083;48.854;9.158;2023-05-16T11:04:07;13.90;99.90
14016;DHT22;7083;48.854;9.158;2023-05-16T11:06:43;13.90;99.90
14016;DHT22;7083;48.854;9.158;2023-05-16T11:09:19;13.80;99.90
14016;DHT22;7083;48.854;9.158;2023-05-16T11:11:53;13.70;99.90
14016;DHT22;7083;48.854;9.158;2023-05-16T11:14:20;13.60;99.90
14016;DHT22;7083;48.854;9.158;2023-05-16T11:16:48;13.60;99.90
14016;DHT22;7083;48.854;9.158;2023-05-16T11:19:29;13.60;99.90
14016;DHT22;7083;48.854;9.158;2023-05-16T11:22:21;13.60;99.90
14016;DHT22;7083;48.854;9.158;2023-05-16T11:24:50;13.60;99.90
14016;DHT22;7083;48.854;9.158;2023-05-16T11:27:23;13.60;99.90
14016;DHT22;7083;48.854;9.158;2023-05-16T11:29:51;13.50;99.90
14016;DHT22;7083;48.854;9.158;2023-05-16T11:32:19;13.50;99.90
14016;DHT22;7083;48.854;9.158;2023-05-16T11:34:47;13.60;99.90
14016;DHT22;7083;48.854;9.158;2023-05-16T11:37:16;13.50;99.90
14016;DHT22;7083;48.854;9.158;2023-05-16T11:39:44;13.40;99.90
14016;DHT22;7083;48.854;9.158;2023-05-16T11:42:10;13.40;99.90
14016;DHT22;7083;48.854;9.158;2023-05-16T11:44:37;13.40;99.90
14016;DHT22;7083;48.854;9.158;2023-05-16T11:47:04;13.50;99.90
14016;DHT22;7083;48.854;9.158;2023-05-16T11:49:31;13.50;99.90
14016;DHT22;7083;48.854;9.158;2023-05-16T11:51:59;13.40;99.90
14016;DHT22;7083;48.854;9.158;2023-05-16T11:54:28;13.50;99.90
14016;DHT22;7083;48.854;9.158;2023-05-16T11:56:54;13.50;99.90
14016;DHT22;7083;48.854;9.158;2023-05-16T11:59:21;13.60;99.90
14016;DHT22;7083;48.854;9.158;2023-05-16T12:01:48;13.70;99.90
14016;DHT22;7083;48.854;9.158;2023-05-16T12:04:16;13.90;99.90
14016;DHT22;7083;48.854;9.158;2023-05-16T12:06:57;14.20;99.90
14016;DHT22;7083;48.854;9.158;2023-05-16T12:09:24;14.50;99.90
14016;DHT22;7083;48.854;9.158;2023-05-16T12:11:52;14.70;99.90
14016;DHT22;7083;48.854;9.158;2023-05-16T12:14:19;14.90;99.90
14016;DHT22;7083;48.854;9.158;2023-05-16T12:16:46;15.10;99.90
14016;DHT22;7083;48.854;9.158;2023-05-16T12:19:14;15.30;99.90
14016;DHT22;7083;48.854;9.158;2023-05-16T12:21:41;15.50;99.90
14016;DHT22;7083;48.854;9.158;2023-05-16T12:24:09;15.60;99.90
14016;DHT22;7083;48.854;9.158;2023-05-16T12:26:39;15.60;99.90
14016;DHT22;7083;48.854;9.158;2023-05-16T12:29:09;15.60;99.90
14016;DHT22;7083;48.854;9.158;2023-05-16T12:31:37;15.50;99.90
14016;DHT22;7083;48.854;9.158;2023-05-16T12:34:04;15.40;99.90
14016;DHT22;7083;48.854;9.158;2023-05-16T12:36:40;15.30;99.90
14016;DHT22;7083;48.854;9.158;2023-05-16T12:39:06;15.20;99.90
14016;DHT22;7083;48.854;9.158;2023-05-16T12:41:40;15.10;99.90
14016;DHT22;7083;48.854;9.158;2023-05-16T12:44:10;15.00;99.90
14016;DHT22;7083;48.854;9.158;2023-05-16T12:46:40;15.00;99.90
14016;DHT22;7083;48.854;9.158;2023-05-16T12:49:07;15.20;99.90
14016;DHT22;7083;48.854;9.158;2023-05-16T12:51:34;15.20;99.90
14016;DHT22;7083;48.854;9.158;2023-05-16T12:54:07;15.20;99.90
14016;DHT22;7083;48.854;9.158;2023-05-16T12:56:35;15.10;99.90
14016;DHT22;7083;48.854;9.158;2023-05-16T12:59:01;15.00;99.90
14016;DHT22;7083;48.854;9.158;2023-05-16T13:01:29;14.80;99.90
14016;DHT22;7083;48.854;9.158;2023-05-16T13:03:56;14.80;99.90
14016;DHT22;7083;48.854;9.158;2023-05-16T13:06:23;14.90;99.90
14016;DHT22;7083;48.854;9.158;2023-05-16T13:08:51;14.90;99.90
14016;DHT22;7083;48.854;9.158;2023-05-16T13:11:17;14.80;99.90
14016;DHT22;7083;48.854;9.158;2023-05-16T13:13:44;14.70;99.90
14016;DHT22;7083;48.854;9.158;2023-05-16T13:16:11;14.70;99.90
14016;DHT22;7083;48.854;9.158;2023-05-16T13:18:39;14.60;99.90
14016;DHT22;7083;48.854;9.158;2023-05-16T13:21:05;15.00;99.90
14016;DHT22;7083;48.854;9.158;2023-05-16T13:23:32;14.40;99.90
14016;DHT22;7083;48.854;9.158;2023-05-16T13:25:58;14.30;99.90
14016;DHT22;7083;48.854;9.158;2023-05-16T13:28:25;14.10;99.90
14016;DHT22;7083;48.854;9.158;2023-05-16T13:30:52;14.10;99.90
14016;DHT22;7083;48.854;9.158;2023-05-16T13:33:19;14.10;99.90
14016;DHT22;7083;48.854;9.158;2023-05-16T13:35:48;14.10;99.90
14016;DHT22;7083;48.854;9.158;2023-05-16T13:38:15;14.00;99.90
14016;DHT22;7083;48.854;9.158;2023-05-16T13:40:43;14.00;99.90
14016;DHT22;7083;48.854;9.158;2023-05-16T13:43:09;14.00;99.90
14016;DHT22;7083;48.854;9.158;2023-05-16T13:45:38;13.90;99.90
14016;DHT22;7083;48.854;9.158;2023-05-16T13:48:05;13.80;99.90
14016;DHT22;7083;48.854;9.158;2023-05-16T13:50:32;13.70;99.90
14016;DHT22;7083;48.854;9.158;2023-05-16T13:53:00;13.50;99.90
14016;DHT22;7083;48.854;9.158;2023-05-16T13:55:27;13.50;99.90
14016;DHT22;7083;48.854;9.158;2023-05-16T13:57:54;13.40;99.90
14016;DHT22;7083;48.854;9.158;2023-05-16T14:00:20;13.30;99.90
14016;DHT22;7083;48.854;9.158;2023-05-16T14:02:47;13.30;99.90
14016;DHT22;7083;48.854;9.158;2023-05-16T14:05:13;13.30;99.90
14016;DHT22;7083;48.854;9.158;2023-05-16T14:07:40;13.30;99.90
14016;DHT22;7083;48.854;9.158;2023-05-16T14:10:09;13.40;99.90
14016;DHT22;7083;48.854;9.158;2023-05-16T14:12:36;13.50;99.90
14016;DHT22;7083;48.854;9.158;2023-05-16T14:15:04;13.60;99.90
14016;DHT22;7083;48.854;9.158;2023-05-16T14:17:30;13.70;99.90
14016;DHT22;7083;48.854;9.158;2023-05-16T14:19:57;13.70;99.90
14016;DHT22;7083;48.854;9.158;2023-05-16T14:22:24;13.60;99.90
14016;DHT22;7083;48.854;9.158;2023-05-16T14:24:50;13.60;99.90
14016;DHT22;7083;48.854;9.158;2023-05-16T14:27:18;13.60;99.90
14016;DHT22;7083;48.854;9.158;2023-05-16T14:29:45;13.70;99.90
14016;DHT22;7083;48.854;9.158;2023-05-16T14:32:13;13.70;99.90
14016;DHT22;7083;48.854;9.158;2023-05-16T14:34:39;13.80;99.90
14016;DHT22;7083;48.854;9.158;2023-05-16T14:37:06;13.90;99.90
14016;DHT22;7083;48.854;9.158;2023-05-16T14:39:34;14.10;99.90
14016;DHT22;7083;48.854;9.158;2023-05-16T14:42:01;14.20;99.90
14016;DHT22;7083;48.854;9.158;2023-05-16T14:44:29;14.20;99.90
14016;DHT22;7083;48.854;9.158;2023-05-16T14:46:56;14.20;99.90
14016;DHT22;7083;48.854;9.158;2023-05-16T14:49:22;14.20;99.90
14016;DHT22;7083;48.854;9.158;2023-05-16T14:51:49;14.10;99.90
14016;DHT22;7083;48.854;9.158;2023-05-16T14:54:16;14.10;99.90
14016;DHT22;7083;48.854;9.158;2023-05-16T14:56:43;14.10;99.90
14016;DHT22;7083;48.854;9.158;2023-05-16T14:59:10;14.00;99.90
14016;DHT22;7083;48.854;9.158;2023-05-16T15:01:39;13.90;99.90
14016;DHT22;7083;48.854;9.158;2023-05-16T15:04:05;13.90;99.90
14016;DHT22;7083;48.854;9.158;2023-05-16T15:06:32;13.90;99.90
14016;DHT22;7083;48.854;9.158;2023-05-16T15:08:59;13.90;99.90
14016;DHT22;7083;48.854;9.158;2023-05-16T15:11:27;14.10;99.90
14016;DHT22;7083;48.854;9.158;2023-05-16T15:13:54;14.20;99.90
14016;DHT22;7083;48.854;9.158;2023-05-16T15:16:21;14.30;99.90
14016;DHT22;7083;48.854;9.158;2023-05-16T15:18:49;14.20;99.90
14016;DHT22;7083;48.854;9.158;2023-05-16T15:21:16;14.10;99.90
14016;DHT22;7083;48.854;9.158;2023-05-16T15:23:43;14.10;99.90
14016;DHT22;7083;48.854;9.158;2023-05-16T15:26:09;14.00;99.90
14016;DHT22;7083;48.854;9.158;2023-05-16T15:28:36;14.00;99.90
14016;DHT22;7083;48.854;9.158;2023-05-16T15:31:03;13.90;99.90
14016;DHT22;7083;48.854;9.158;2023-05-16T15:33:30;13.90;99.90
14016;DHT22;7083;48.854;9.158;2023-05-16T15:35:58;13.90;99.90
14016;DHT22;7083;48.854;9.158;2023-05-16T15:38:24;14.00;99.20
14016;DHT22;7083;48.854;9.158;2023-05-16T15:40:51;14.10;98.60
14016;DHT22;7083;48.854;9.158;2023-05-16T15:43:18;14.20;97.50
14016;DHT22;7083;48.854;9.158;2023-05-16T15:45:44;14.30;97.20
14016;DHT22;7083;48.854;9.158;2023-05-16T15:48:11;14.30;96.80